Time;durP1;ratioP1;P1;durP2;ratioP2;P2;SDS_P1;SDS_P2;PMS_P1;PMS_P2;Temp;Humidity;BMP_temperature;BMP_pressure;BME280_temperature;BME280_humidity;BME280_pressure;Samples;Min_cycle;Max_cycle;Signal;HPM_P1;HPM_P2
2022/03/16 00:01:43;;;;;;;23.65;18.50;;;7.40;99.90;;;;;;5077418;28;20077;-67
2022/03/16 00:04:09;;;;;;;27.73;20.15;;;7.40;99.90;;;;;;5076320;28;20170;-67
2022/03/16 00:06:35;;;;;;;24.65;18.48;;;7.40;99.90;;;;;;5076296;28;20071;-67
2022/03/16 00:09:01;;;;;;;26.73;18.77;;;7.50;99.90;;;;;;5076135;28;20061;-67
2022/03/16 00:11:26;;;;;;;23.90;17.63;;;7.40;99.90;;;;;;5059364;28;20021;-68
2022/03/16 00:13:52;;;;;;;26.02;19.25;;;7.40;99.90;;;;;;5059387;28;20123;-68
2022/03/16 00:16:18;;;;;;;27.35;19.00;;;7.40;99.90;;;;;;5076720;28;20047;-68
2022/03/16 00:18:44;;;;;;;26.13;19.48;;;7.40;99.90;;;;;;5076097;28;20358;-68
2022/03/16 00:21:09;;;;;;;26.23;18.85;;;7.30;99.90;;;;;;5076081;28;20111;-67
2022/03/16 00:23:35;;;;;;;25.02;18.95;;;7.30;99.90;;;;;;5076101;28;20024;-68
2022/03/16 00:26:03;;;;;;;25.15;18.90;;;7.30;99.90;;;;;;5059372;28;20029;-68
2022/03/16 00:28:29;;;;;;;25.15;19.00;;;7.40;99.90;;;;;;5076144;28;20282;-67
2022/03/16 00:30:55;;;;;;;27.02;18.90;;;7.40;99.90;;;;;;5076030;28;20036;-67
2022/03/16 00:33:21;;;;;;;26.20;18.75;;;7.40;99.90;;;;;;5076724;28;20117;-68
2022/03/16 00:35:47;;;;;;;26.17;18.40;;;7.40;99.90;;;;;;5076037;28;20364;-68
2022/03/16 00:38:14;;;;;;;24.83;19.23;;;7.40;99.90;;;;;;5075717;28;20075;-68
2022/03/16 00:40:40;;;;;;;28.60;19.58;;;7.40;99.90;;;;;;5075118;28;20040;-68
2022/03/16 00:43:06;;;;;;;26.58;18.88;;;7.40;99.90;;;;;;5076477;28;20028;-68
2022/03/16 00:45:32;;;;;;;28.13;19.33;;;7.40;99.90;;;;;;5059141;28;20064;-68
2022/03/16 00:47:59;;;;;;;24.08;18.52;;;7.40;99.90;;;;;;5076297;28;20048;-68
2022/03/16 00:50:25;;;;;;;23.90;18.38;;;7.40;99.90;;;;;;5075990;28;20024;-68
2022/03/16 00:52:51;;;;;;;26.58;18.08;;;7.40;99.90;;;;;;5059073;28;20028;-68
2022/03/16 00:55:17;;;;;;;24.02;17.70;;;7.30;99.90;;;;;;5076537;28;20037;-68
2022/03/16 00:57:43;;;;;;;25.10;18.80;;;7.40;99.90;;;;;;5076536;28;20037;-68
2022/03/16 01:00:10;;;;;;;28.58;17.60;;;7.40;99.90;;;;;;5078704;28;20037;-68
2022/03/16 01:02:36;;;;;;;29.70;18.48;;;7.40;99.90;;;;;;5080606;28;20033;-68
2022/03/16 01:05:03;;;;;;;23.00;17.55;;;7.20;99.90;;;;;;5080287;28;20104;-68
2022/03/16 01:07:29;;;;;;;23.83;17.42;;;7.20;99.90;;;;;;5062934;28;20035;-68
2022/03/16 01:09:55;;;;;;;27.38;17.45;;;7.30;99.90;;;;;;5079219;28;20024;-68
2022/03/16 01:12:21;;;;;;;25.42;18.52;;;7.30;99.90;;;;;;5078602;28;20127;-69
2022/03/16 01:14:47;;;;;;;23.52;18.25;;;7.30;99.90;;;;;;5077544;28;20033;-68
2022/03/16 01:17:15;;;;;;;27.88;18.85;;;7.30;99.90;;;;;;5079416;28;20059;-68
2022/03/16 01:19:41;;;;;;;28.67;18.65;;;7.30;99.90;;;;;;5079284;28;20025;-68
2022/03/16 01:22:07;;;;;;;27.48;18.10;;;7.40;99.90;;;;;;5078462;28;20028;-68
2022/03/16 01:24:33;;;;;;;26.65;18.60;;;7.30;99.90;;;;;;5079878;28;20135;-68
2022/03/16 01:26:59;;;;;;;27.20;19.30;;;7.30;99.90;;;;;;5079850;28;20032;-68
2022/03/16 01:29:26;;;;;;;26.85;19.38;;;7.20;99.90;;;;;;5079827;28;20017;-69
2022/03/16 01:31:53;;;;;;;25.02;18.30;;;7.00;99.90;;;;;;5079097;28;20376;-68
2022/03/16 01:34:20;;;;;;;27.23;18.40;;;7.00;99.90;;;;;;5078964;28;20029;-68
2022/03/16 01:36:46;;;;;;;26.08;17.83;;;6.90;99.90;;;;;;5062405;28;20044;-68
2022/03/16 01:39:12;;;;;;;26.83;19.75;;;7.00;99.90;;;;;;5079413;28;20396;-68
2022/03/16 01:41:38;;;;;;;24.98;18.77;;;7.00;99.90;;;;;;5061523;28;20036;-68
2022/03/16 01:44:05;;;;;;;24.98;18.58;;;7.00;99.90;;;;;;5078746;28;20392;-68
2022/03/16 01:46:31;;;;;;;25.88;19.08;;;7.00;99.90;;;;;;5078947;28;20044;-68
2022/03/16 01:48:58;;;;;;;31.15;19.60;;;6.90;99.90;;;;;;5078600;28;20025;-68
2022/03/16 01:51:24;;;;;;;27.27;18.70;;;6.90;99.90;;;;;;5078692;28;20040;-68
2022/03/16 01:53:51;;;;;;;28.33;18.95;;;6.90;99.90;;;;;;5078770;28;20059;-68
2022/03/16 01:56:18;;;;;;;27.55;19.45;;;6.80;99.90;;;;;;5078637;28;20032;-68
2022/03/16 01:58:44;;;;;;;27.70;19.05;;;6.70;99.90;;;;;;5061967;28;20086;-68
2022/03/16 02:01:10;;;;;;;28.35;19.92;;;6.60;99.90;;;;;;5061898;28;20032;-67
2022/03/16 02:03:36;;;;;;;28.92;19.50;;;6.60;99.90;;;;;;5078405;28;20094;-68
2022/03/16 02:06:02;;;;;;;29.60;20.00;;;6.60;99.90;;;;;;5079171;28;20043;-67
2022/03/16 02:08:32;;;;;;;26.70;19.08;;;6.60;99.90;;;;;;5079208;28;20033;-68
2022/03/16 02:10:58;;;;;;;29.08;19.00;;;6.60;99.90;;;;;;5078513;28;20039;-68
2022/03/16 02:13:27;;;;;;;28.30;19.52;;;6.60;99.90;;;;;;5078456;28;20036;-68
2022/03/16 02:15:53;;;;;;;25.83;20.15;;;6.60;99.90;;;;;;5079092;28;20119;-68
2022/03/16 02:18:19;;;;;;;28.92;20.27;;;6.60;99.90;;;;;;5078248;28;20083;-68
2022/03/16 02:20:50;;;;;;;30.85;20.65;;;6.50;99.90;;;;;;5062716;28;20037;-69
2022/03/16 02:23:16;;;;;;;27.42;19.85;;;6.50;99.90;;;;;;5078763;28;20028;-68
2022/03/16 02:25:51;;;;;;;28.20;19.52;;;6.40;99.90;;;;;;5078967;28;20029;-68
2022/03/16 02:28:18;;;;;;;32.63;21.85;;;6.50;99.90;;;;;;5078074;28;20021;-68
2022/03/16 02:30:44;;;;;;;32.58;21.33;;;6.40;99.90;;;;;;5078739;28;20277;-68
2022/03/16 02:33:10;;;;;;;26.58;20.00;;;6.40;99.90;;;;;;5078695;28;20039;-68
2022/03/16 02:35:36;;;;;;;31.42;19.85;;;6.30;99.90;;;;;;5078620;28;20047;-68
2022/03/16 02:38:03;;;;;;;32.05;20.50;;;6.30;99.90;;;;;;5078304;28;20032;-68
2022/03/16 02:40:29;;;;;;;31.40;21.40;;;6.30;99.90;;;;;;5078287;28;20036;-68
2022/03/16 02:42:55;;;;;;;29.48;20.77;;;6.30;99.90;;;;;;5077060;28;20030;-68
2022/03/16 02:45:21;;;;;;;27.90;20.42;;;6.30;99.90;;;;;;5060909;28;20039;-68
2022/03/16 02:47:47;;;;;;;31.92;22.17;;;6.30;99.90;;;;;;5060944;28;20119;-68
2022/03/16 02:50:16;;;;;;;32.78;21.77;;;6.40;99.90;;;;;;5078384;28;20388;-68
2022/03/16 02:52:43;;;;;;;31.48;21.63;;;6.40;99.90;;;;;;5077555;28;20047;-68
2022/03/16 02:55:10;;;;;;;28.42;20.83;;;6.40;99.90;;;;;;5078248;28;20033;-68
2022/03/16 02:57:36;;;;;;;29.65;21.90;;;6.30;99.90;;;;;;5061013;28;20036;-68
2022/03/16 03:00:05;;;;;;;33.50;22.67;;;6.30;99.90;;;;;;5077341;28;20119;-68
2022/03/16 03:02:31;;;;;;;29.35;20.35;;;6.30;99.90;;;;;;5078034;28;20021;-68
2022/03/16 03:04:57;;;;;;;29.60;21.25;;;6.20;99.90;;;;;;5077286;28;20044;-68
2022/03/16 03:07:22;;;;;;;31.40;21.80;;;6.30;99.90;;;;;;5043995;28;20094;-67
2022/03/16 03:09:48;;;;;;;31.48;21.63;;;6.10;99.90;;;;;;5077518;28;20144;-68
2022/03/16 03:12:14;;;;;;;32.50;21.63;;;6.20;99.90;;;;;;5077625;28;20032;-67
2022/03/16 03:14:40;;;;;;;32.00;22.35;;;6.10;99.90;;;;;;5076853;28;20024;-67
2022/03/16 03:17:06;;;;;;;31.38;22.50;;;6.10;99.90;;;;;;5077809;28;20029;-68
2022/03/16 03:19:32;;;;;;;31.02;21.55;;;6.20;99.90;;;;;;5077674;28;20039;-68
2022/03/16 03:21:58;;;;;;;31.92;21.77;;;6.20;99.90;;;;;;5077138;28;20040;-67
2022/03/16 03:24:24;;;;;;;31.45;21.55;;;6.30;99.90;;;;;;5076928;28;20072;-67
2022/03/16 03:26:50;;;;;;;33.58;21.92;;;6.30;99.90;;;;;;5076785;28;20363;-67
2022/03/16 03:29:16;;;;;;;29.83;21.60;;;6.30;99.90;;;;;;5076797;28;20033;-68
2022/03/16 03:31:42;;;;;;;31.50;22.13;;;6.30;99.90;;;;;;5077539;28;20068;-67
2022/03/16 03:34:08;;;;;;;32.92;22.13;;;6.20;99.90;;;;;;5077521;28;20125;-68
2022/03/16 03:36:35;;;;;;;31.33;21.33;;;6.20;99.90;;;;;;5060052;28;20430;-67
2022/03/16 03:39:00;;;;;;;31.08;22.27;;;6.20;99.90;;;;;;5077144;28;20052;-68
2022/03/16 03:41:26;;;;;;;30.52;21.02;;;6.30;99.90;;;;;;5077433;28;20303;-67
2022/03/16 03:43:52;;;;;;;30.63;21.30;;;6.30;99.90;;;;;;5076403;28;20285;-67
2022/03/16 03:46:18;;;;;;;30.98;21.38;;;6.10;99.90;;;;;;5077266;28;20041;-68
2022/03/16 03:48:44;;;;;;;30.73;21.58;;;6.20;99.90;;;;;;5043391;28;20068;-67
2022/03/16 03:51:09;;;;;;;29.50;20.95;;;6.20;99.90;;;;;;5076549;28;20025;-67
2022/03/16 03:53:35;;;;;;;34.13;22.67;;;6.20;99.90;;;;;;5076440;28;20028;-67
2022/03/16 03:56:01;;;;;;;31.55;21.60;;;6.20;99.90;;;;;;5076531;28;20300;-67
2022/03/16 03:58:27;;;;;;;32.83;22.75;;;6.30;99.90;;;;;;5077093;28;20419;-67
2022/03/16 04:00:53;;;;;;;33.00;21.75;;;6.20;99.90;;;;;;5077338;28;20047;-67
2022/03/16 04:03:19;;;;;;;31.60;21.55;;;6.20;99.90;;;;;;5077267;28;20132;-68
2022/03/16 04:05:45;;;;;;;35.50;22.90;;;6.20;99.90;;;;;;5076398;28;20020;-68
2022/03/16 04:08:11;;;;;;;36.00;22.80;;;6.30;99.90;;;;;;5076308;28;20088;-69
2022/03/16 04:10:38;;;;;;;34.80;23.08;;;6.30;99.90;;;;;;5076428;28;20058;-68
2022/03/16 04:13:05;;;;;;;31.98;22.40;;;6.20;99.90;;;;;;5076229;28;20048;-68
2022/03/16 04:15:31;;;;;;;32.55;22.90;;;6.00;99.90;;;;;;5076127;28;20032;-68
2022/03/16 04:17:57;;;;;;;33.92;22.48;;;5.90;99.90;;;;;;5059435;28;20036;-68
2022/03/16 04:20:23;;;;;;;35.10;23.08;;;5.80;99.90;;;;;;5059455;28;20040;-68
2022/03/16 04:22:48;;;;;;;33.85;22.40;;;5.90;99.90;;;;;;5059327;28;20036;-68
2022/03/16 04:25:14;;;;;;;37.33;24.23;;;5.90;99.90;;;;;;5077372;28;20280;-68
2022/03/16 04:27:40;;;;;;;36.08;23.92;;;5.90;99.90;;;;;;5077157;28;20025;-68
2022/03/16 04:30:07;;;;;;;34.72;23.58;;;5.80;99.90;;;;;;5076764;28;20036;-68
2022/03/16 04:32:33;;;;;;;37.03;23.50;;;5.80;99.90;;;;;;5076773;28;20296;-69
2022/03/16 04:34:59;;;;;;;37.90;24.63;;;5.90;99.90;;;;;;5078325;28;20115;-68
2022/03/16 04:37:24;;;;;;;37.47;25.33;;;5.90;99.90;;;;;;5080230;28;20396;-68
2022/03/16 04:39:50;;;;;;;39.08;25.00;;;6.00;99.90;;;;;;5080148;28;20132;-68
2022/03/16 04:42:16;;;;;;;39.13;24.98;;;6.20;99.90;;;;;;5080115;28;20097;-68
2022/03/16 04:44:42;;;;;;;38.60;25.38;;;6.30;99.90;;;;;;5063383;28;20139;-68
2022/03/16 04:47:08;;;;;;;39.10;25.98;;;6.40;99.90;;;;;;5079928;28;20024;-68
2022/03/16 04:49:34;;;;;;;39.88;24.88;;;6.50;99.90;;;;;;5079876;28;20036;-69
2022/03/16 04:51:59;;;;;;;36.67;24.67;;;6.40;99.90;;;;;;5046789;28;20307;-69
2022/03/16 04:54:25;;;;;;;35.50;24.13;;;6.40;99.90;;;;;;5081117;28;20041;-68
2022/03/16 04:56:51;;;;;;;39.05;25.58;;;6.30;99.90;;;;;;5079879;28;20089;-68
2022/03/16 04:59:17;;;;;;;35.78;23.33;;;6.60;99.90;;;;;;5080424;28;20396;-68
2022/03/16 05:01:43;;;;;;;34.92;24.10;;;6.60;99.90;;;;;;5079638;28;20541;-69
2022/03/16 05:04:09;;;;;;;36.63;24.90;;;6.70;99.90;;;;;;5079549;28;20029;-69
2022/03/16 05:06:35;;;;;;;39.67;25.52;;;6.70;99.90;;;;;;5079733;28;20032;-69
2022/03/16 05:09:01;;;;;;;38.25;24.65;;;6.70;99.90;;;;;;5079567;28;20020;-69
2022/03/16 05:11:27;;;;;;;41.55;25.75;;;6.60;99.90;;;;;;5080284;28;20028;-69
2022/03/16 05:13:52;;;;;;;38.03;25.33;;;6.70;99.90;;;;;;5080277;28;20032;-68
2022/03/16 05:16:18;;;;;;;38.80;25.20;;;6.80;99.90;;;;;;5080163;28;20097;-69
2022/03/16 05:18:45;;;;;;;36.83;25.08;;;6.70;99.90;;;;;;5079363;28;20060;-69
2022/03/16 05:21:12;;;;;;;36.97;25.25;;;6.60;99.90;;;;;;5079489;28;20423;-70
2022/03/16 05:23:40;;;;;;;37.45;25.20;;;6.70;99.90;;;;;;5062878;28;20059;-69
2022/03/16 05:26:06;;;;;;;35.40;24.67;;;6.70;99.90;;;;;;5079990;28;20048;-69
2022/03/16 05:28:33;;;;;;;37.50;25.75;;;6.70;99.90;;;;;;5080467;28;20063;-69
2022/03/16 05:30:59;;;;;;;37.05;23.60;;;6.80;99.90;;;;;;5079702;28;20039;-69
2022/03/16 05:33:24;;;;;;;38.50;25.60;;;6.60;99.90;;;;;;5079022;28;20037;-69
2022/03/16 05:35:51;;;;;;;38.10;25.85;;;6.70;99.90;;;;;;5080012;28;20029;-70
2022/03/16 05:38:17;;;;;;;37.50;25.50;;;6.70;99.90;;;;;;5079428;28;20048;-70
2022/03/16 05:40:44;;;;;;;35.65;24.92;;;6.70;99.90;;;;;;5062150;28;20059;-69
2022/03/16 05:43:11;;;;;;;34.78;24.27;;;6.60;99.90;;;;;;5079496;28;20047;-69
2022/03/16 05:45:38;;;;;;;35.17;25.17;;;6.60;99.90;;;;;;5078451;28;20036;-69
2022/03/16 05:48:04;;;;;;;39.25;25.35;;;6.60;99.90;;;;;;5079446;28;20028;-69
2022/03/16 05:50:30;;;;;;;35.88;24.10;;;6.70;99.90;;;;;;5078632;28;20056;-69
2022/03/16 05:52:57;;;;;;;36.15;25.25;;;6.70;99.90;;;;;;5078614;28;20033;-69
2022/03/16 05:55:23;;;;;;;33.03;23.38;;;6.70;99.90;;;;;;5078617;28;20037;-70
2022/03/16 05:57:50;;;;;;;36.13;24.70;;;6.70;99.90;;;;;;5078588;28;20103;-69
2022/03/16 06:00:17;;;;;;;34.95;24.02;;;6.80;99.90;;;;;;5078607;28;20342;-69
2022/03/16 06:02:44;;;;;;;35.17;23.83;;;6.90;99.90;;;;;;5079140;28;20024;-69
2022/03/16 06:05:10;;;;;;;34.47;23.45;;;7.00;99.90;;;;;;5078593;28;20029;-69
2022/03/16 06:07:37;;;;;;;32.00;23.13;;;7.10;99.90;;;;;;5061734;28;20174;-69
2022/03/16 06:10:05;;;;;;;35.13;24.23;;;7.10;99.90;;;;;;5079055;28;20036;-70
2022/03/16 06:12:31;;;;;;;32.97;22.60;;;7.20;99.90;;;;;;5078082;28;20024;-70
2022/03/16 06:14:57;;;;;;;32.03;21.88;;;7.10;99.90;;;;;;5061632;28;20032;-70
2022/03/16 06:17:23;;;;;;;33.13;22.50;;;7.00;99.90;;;;;;5078594;28;20028;-70
2022/03/16 06:19:49;;;;;;;32.35;23.00;;;6.90;99.90;;;;;;5078188;28;20090;-69
2022/03/16 06:22:15;;;;;;;34.30;22.45;;;6.80;99.90;;;;;;5077882;28;20071;-64
2022/03/16 06:24:41;;;;;;;34.83;22.45;;;6.80;99.90;;;;;;5078527;28;20296;-61
2022/03/16 06:27:06;;;;;;;31.98;23.00;;;6.80;99.90;;;;;;5078667;28;20025;-61
2022/03/16 06:29:32;;;;;;;32.15;22.63;;;6.90;99.90;;;;;;5078605;28;20036;-61
2022/03/16 06:31:58;;;;;;;30.88;22.60;;;6.90;99.90;;;;;;5061468;28;20056;-61
2022/03/16 06:34:25;;;;;;;31.00;21.83;;;7.00;99.90;;;;;;5077771;28;20399;-62
2022/03/16 06:36:51;;;;;;;30.15;21.63;;;6.90;99.90;;;;;;5078417;28;20044;-62
2022/03/16 06:39:17;;;;;;;28.52;20.98;;;6.80;99.90;;;;;;5077491;28;20465;-63
2022/03/16 06:41:43;;;;;;;40.08;22.27;;;6.80;99.90;;;;;;5044369;28;20403;-62
2022/03/16 06:44:10;;;;;;;31.35;21.35;;;6.80;99.90;;;;;;5044378;28;20375;-62
2022/03/16 06:46:37;;;;;;;32.03;21.90;;;6.80;99.90;;;;;;5078271;28;20028;-62
2022/03/16 06:49:06;;;;;;;29.80;20.77;;;6.60;99.90;;;;;;5077640;28;20059;-62
2022/03/16 06:51:32;;;;;;;30.23;20.42;;;6.60;99.90;;;;;;5060793;28;20082;-62
2022/03/16 06:53:58;;;;;;;31.00;20.73;;;6.70;99.90;;;;;;5078144;28;20300;-62
2022/03/16 06:56:24;;;;;;;30.63;19.70;;;6.70;99.90;;;;;;5077651;28;20079;-62
2022/03/16 06:58:51;;;;;;;27.10;19.00;;;6.60;99.90;;;;;;5076893;28;20028;-62
2022/03/16 07:01:17;;;;;;;29.10;19.17;;;6.60;99.90;;;;;;5078006;28;20040;-62
2022/03/16 07:03:43;;;;;;;27.77;19.70;;;6.80;99.90;;;;;;5077329;28;20147;-63
2022/03/16 07:06:10;;;;;;;27.67;18.98;;;6.80;99.90;;;;;;5077125;28;20427;-62
2022/03/16 07:08:36;;;;;;;28.10;19.60;;;6.80;99.90;;;;;;5077201;28;20115;-61
2022/03/16 07:11:02;;;;;;;27.02;19.17;;;6.90;99.90;;;;;;5077034;28;20074;-61
2022/03/16 07:13:28;;;;;;;27.08;19.23;;;6.90;99.90;;;;;;5077643;28;20119;-61
2022/03/16 07:15:54;;;;;;;30.33;18.67;;;6.90;99.90;;;;;;5076892;28;20082;-61
2022/03/16 07:18:20;;;;;;;29.27;19.38;;;7.00;99.90;;;;;;5076762;28;20047;-61
2022/03/16 07:20:47;;;;;;;26.80;18.80;;;7.00;99.90;;;;;;5076875;28;20047;-61
2022/03/16 07:23:15;;;;;;;26.95;18.10;;;7.10;99.90;;;;;;5077438;28;20040;-62
2022/03/16 07:25:43;;;;;;;25.00;18.60;;;7.10;99.90;;;;;;5060165;28;20459;-61
2022/03/16 07:28:10;;;;;;;25.95;18.77;;;7.20;99.90;;;;;;5077345;28;20262;-60
2022/03/16 07:30:37;;;;;;;26.45;18.63;;;8.60;99.90;;;;;;5077579;28;20308;-61
2022/03/16 07:33:04;;;;;;;23.30;18.50;;;8.10;99.90;;;;;;5059990;28;20040;-62
2022/03/16 07:35:30;;;;;;;26.35;17.13;;;7.90;99.90;;;;;;5077382;28;20035;-61
2022/03/16 07:37:57;;;;;;;24.77;18.08;;;7.80;99.90;;;;;;5076409;28;20309;-63
2022/03/16 07:40:24;;;;;;;25.40;17.90;;;7.80;99.90;;;;;;5077307;28;20035;-62
2022/03/16 07:42:51;;;;;;;37.00;17.83;;;7.60;99.90;;;;;;5059819;28;20037;-60
2022/03/16 07:45:19;;;;;;;23.98;17.42;;;8.30;99.90;;;;;;5076753;28;20102;-61
2022/03/16 07:47:46;;;;;;;22.35;16.40;;;8.50;99.90;;;;;;5076334;28;20021;-61
2022/03/16 07:50:12;;;;;;;23.88;17.05;;;8.40;99.90;;;;;;5076943;28;20327;-63
2022/03/16 07:52:38;;;;;;;23.85;16.90;;;8.30;99.90;;;;;;5059657;28;20040;-61
2022/03/16 07:55:06;;;;;;;25.67;16.27;;;8.10;99.90;;;;;;5059564;28;20102;-62
2022/03/16 07:57:32;;;;;;;21.13;16.10;;;8.10;99.90;;;;;;5076983;28;20090;-62
2022/03/16 07:59:58;;;;;;;21.60;16.25;;;8.10;99.90;;;;;;5076415;28;20405;-63
2022/03/16 08:02:27;;;;;;;21.45;15.65;;;8.20;99.90;;;;;;5076149;28;20052;-59
2022/03/16 08:04:53;;;;;;;22.80;15.45;;;8.10;99.90;;;;;;5076035;28;20068;-60
2022/03/16 08:07:19;;;;;;;22.23;16.33;;;8.00;99.90;;;;;;5059401;28;20048;-60
2022/03/16 08:09:44;;;;;;;20.95;15.05;;;8.00;99.90;;;;;;5076910;28;20032;-60
2022/03/16 08:12:10;;;;;;;20.27;14.43;;;8.10;99.90;;;;;;5076687;28;20031;-59
2022/03/16 08:14:36;;;;;;;21.42;15.43;;;8.10;99.90;;;;;;5077224;28;20427;-60
2022/03/16 08:17:02;;;;;;;21.45;14.65;;;8.20;99.90;;;;;;5076719;28;20032;-62
2022/03/16 08:19:28;;;;;;;21.23;15.13;;;8.10;99.90;;;;;;5076041;28;20028;-62
2022/03/16 08:21:53;;;;;;;18.92;13.63;;;8.20;99.90;;;;;;5076112;28;20044;-63
2022/03/16 08:24:19;;;;;;;19.33;14.93;;;8.50;99.90;;;;;;5075832;28;20032;-63
2022/03/16 08:26:45;;;;;;;19.25;14.68;;;8.60;99.90;;;;;;5075898;28;20292;-63
2022/03/16 08:29:11;;;;;;;19.33;14.45;;;8.60;99.90;;;;;;5059139;28;20029;-63
2022/03/16 08:31:37;;;;;;;19.27;14.98;;;8.80;99.90;;;;;;5075782;28;20034;-62
2022/03/16 08:34:03;;;;;;;20.50;14.73;;;8.80;99.90;;;;;;5059027;28;20039;-62
2022/03/16 08:36:29;;;;;;;19.00;14.25;;;8.80;99.90;;;;;;5076354;28;20050;-62
2022/03/16 08:38:55;;;;;;;19.38;14.27;;;8.90;99.90;;;;;;5076371;28;20422;-64
2022/03/16 08:41:21;;;;;;;21.50;14.60;;;9.00;99.90;;;;;;5075890;28;20367;-62
2022/03/16 08:43:47;;;;;;;21.55;14.43;;;9.10;99.90;;;;;;5075750;28;20041;-63
2022/03/16 08:46:12;;;;;;;19.48;13.80;;;9.20;99.90;;;;;;5076569;28;20423;-63
2022/03/16 08:48:38;;;;;;;17.88;13.38;;;9.30;99.90;;;;;;5076522;28;20120;-62
2022/03/16 08:51:07;;;;;;;17.45;13.80;;;9.50;99.90;;;;;;5075912;28;20036;-62
2022/03/16 08:53:35;;;;;;;18.08;13.45;;;9.80;99.90;;;;;;5075905;28;20123;-60
2022/03/16 08:56:01;;;;;;;18.85;13.38;;;10.00;99.90;;;;;;5076533;28;20033;-61
2022/03/16 08:58:30;;;;;;;16.33;12.73;;;10.10;99.90;;;;;;5076467;28;20056;-61
2022/03/16 09:00:55;;;;;;;18.90;13.15;;;10.20;99.90;;;;;;5075784;28;20044;-62
2022/03/16 09:03:21;;;;;;;18.05;13.70;;;10.10;99.90;;;;;;5075930;28;20046;-62
2022/03/16 09:05:47;;;;;;;18.33;12.50;;;10.10;99.90;;;;;;5075694;28;20112;-62
2022/03/16 09:08:13;;;;;;;17.23;12.55;;;10.00;99.90;;;;;;5076077;28;20036;-63
2022/03/16 09:10:39;;;;;;;18.20;13.52;;;10.30;99.90;;;;;;5042521;28;20056;-61
2022/03/16 09:13:06;;;;;;;16.80;12.63;;;10.40;99.90;;;;;;5075587;28;20040;-62
2022/03/16 09:15:31;;;;;;;16.10;12.30;;;10.50;99.90;;;;;;5059089;28;20044;-62
2022/03/16 09:17:57;;;;;;;16.42;12.00;;;10.70;99.90;;;;;;5076183;28;20415;-62
2022/03/16 09:20:23;;;;;;;15.77;12.82;;;10.60;99.90;;;;;;5077593;28;20029;-60
2022/03/16 09:22:49;;;;;;;16.98;12.07;;;10.60;99.90;;;;;;5079815;28;20051;-58
2022/03/16 09:25:15;;;;;;;17.63;11.95;;;10.80;99.90;;;;;;5080144;28;20024;-63
2022/03/16 09:27:41;;;;;;;16.70;12.45;;;10.80;99.90;;;;;;5079843;28;20040;-60
2022/03/16 09:30:08;;;;;;;16.17;12.02;;;11.00;99.90;;;;;;5079807;28;20024;-61
2022/03/16 09:32:34;;;;;;;20.38;12.20;;;11.30;99.90;;;;;;5079514;28;20027;-63
2022/03/16 09:35:00;;;;;;;16.40;11.45;;;11.40;99.90;;;;;;5079935;28;20025;-62
2022/03/16 09:37:26;;;;;;;14.77;11.55;;;11.40;99.90;;;;;;5079034;28;20090;-62
2022/03/16 09:39:52;;;;;;;15.85;11.80;;;11.40;99.90;;;;;;5079607;28;20044;-62
2022/03/16 09:42:22;;;;;;;17.20;12.07;;;11.30;99.90;;;;;;5079655;28;20094;-62
2022/03/16 09:44:51;;;;;;;14.23;11.85;;;11.30;99.90;;;;;;5079642;28;20040;-62
2022/03/16 09:47:18;;;;;;;14.43;11.32;;;11.50;99.90;;;;;;5079645;28;20020;-62
2022/03/16 09:49:45;;;;;;;16.65;11.43;;;11.50;99.90;;;;;;5079578;28;20028;-61
2022/03/16 09:52:11;;;;;;;16.45;11.80;;;11.60;99.90;;;;;;5062677;28;20376;-61
2022/03/16 09:54:37;;;;;;;14.45;11.73;;;11.80;99.90;;;;;;5079508;28;20059;-63
2022/03/16 09:57:03;;;;;;;17.98;11.77;;;11.80;99.90;;;;;;5079474;28;20060;-61
2022/03/16 09:59:29;;;;;;;16.08;11.23;;;11.90;99.90;;;;;;5079377;28;20051;-60
2022/03/16 10:02:04;;;;;;;14.43;11.88;;;11.80;99.90;;;;;;5078625;28;20040;-61
2022/03/16 10:04:33;;;;;;;17.90;11.93;;;12.00;99.90;;;;;;5062582;28;20312;-61
2022/03/16 10:07:00;;;;;;;15.40;11.43;;;12.60;99.90;;;;;;5079236;28;20071;-60
2022/03/16 10:15:11;;;;;;;14.90;10.95;;;12.90;99.90;;;;;;5078979;28;20068;-60
2022/03/16 10:17:45;;;;;;;15.30;11.50;;;12.70;99.90;;;;;;5078173;28;20032;-62
2022/03/16 10:20:23;;;;;;;14.15;10.77;;;12.60;99.90;;;;;;5078890;28;20356;-61
2022/03/16 10:23:13;;;;;;;12.82;10.65;;;12.60;99.90;;;;;;5077942;28;20043;-61
2022/03/16 10:25:41;;;;;;;14.63;10.70;;;12.60;99.90;;;;;;5078695;28;20103;-61
2022/03/16 10:28:17;;;;;;;17.75;11.15;;;12.90;99.90;;;;;;5078657;28;20036;-62
2022/03/16 10:30:55;;;;;;;14.45;10.88;;;13.20;99.90;;;;;;5078772;28;20052;-61
2022/03/16 10:33:22;;;;;;;18.40;10.82;;;13.50;99.90;;;;;;5060192;28;20025;-61
2022/03/16 10:36:00;;;;;;;14.23;10.77;;;13.70;99.90;;;;;;5078611;28;20040;-63
2022/03/16 10:38:28;;;;;;;15.15;10.45;;;13.80;99.90;;;;;;5077662;28;20297;-61
2022/03/16 10:40:56;;;;;;;15.23;10.77;;;13.90;99.90;;;;;;5077697;28;20044;-62
2022/03/16 10:46:34;;;;;;;11.52;9.93;;;14.20;99.90;;;;;;5078618;28;20032;-61
2022/03/16 10:49:09;;;;;;;18.00;10.10;;;14.40;99.90;;;;;;5077808;28;20273;-61
2022/03/16 10:51:36;;;;;;;12.45;10.38;;;14.80;99.90;;;;;;5077556;28;20050;-61
2022/03/16 10:54:04;;;;;;;13.43;10.48;;;14.80;99.90;;;;;;5078224;28;20467;-62
2022/03/16 10:56:31;;;;;;;12.70;9.88;;;14.60;99.90;;;;;;5077535;28;20090;-62
2022/03/16 10:58:58;;;;;;;13.30;10.32;;;14.60;99.90;;;;;;5078098;28;20032;-62
2022/03/16 11:01:27;;;;;;;12.35;10.07;;;14.80;99.90;;;;;;5078185;28;20392;-62
2022/03/16 11:03:55;;;;;;;12.27;9.50;;;14.60;99.90;;;;;;5077190;28;20338;-62
2022/03/16 11:06:22;;;;;;;14.77;9.60;;;14.60;99.90;;;;;;5077370;28;20040;-62
2022/03/16 11:08:50;;;;;;;11.95;10.13;;;14.90;99.90;;;;;;5077213;28;20408;-61
2022/03/16 11:14:05;;;;;;;13.38;10.13;;;15.40;99.90;;;;;;5077957;28;20097;-61
2022/03/16 11:16:32;;;;;;;13.07;10.07;;;15.10;99.90;;;;;;5076861;28;20040;-62
2022/03/16 11:19:00;;;;;;;12.73;8.65;;;14.90;99.90;;;;;;5077755;28;20039;-61
2022/03/16 11:21:44;;;;;;;14.05;10.45;;;14.80;99.90;;;;;;5077745;28;20040;-61
2022/03/16 11:24:17;;;;;;;12.52;10.05;;;14.60;99.90;;;;;;5077562;28;20068;-62
2022/03/16 11:26:49;;;;;;;16.80;10.40;;;14.90;99.90;;;;;;5077774;28;20093;-62
2022/03/16 11:29:49;;;;;;;16.80;10.30;;;14.60;99.90;;;;;;5077605;28;20032;-62
2022/03/16 11:32:17;;;;;;;14.93;9.77;;;14.40;99.90;;;;;;5077411;28;20067;-62
2022/03/16 11:34:48;;;;;;;14.48;10.02;;;14.30;99.90;;;;;;5077642;28;20044;-62
2022/03/16 11:37:14;;;;;;;15.20;8.70;;;14.50;99.90;;;;;;5076737;28;20036;-60
2022/03/16 11:39:43;;;;;;;11.40;9.98;;;14.80;99.90;;;;;;5077265;28;20052;-62
2022/03/16 11:42:09;;;;;;;13.85;9.70;;;14.80;99.90;;;;;;5076546;28;20064;-60
2022/03/16 11:44:35;;;;;;;12.88;10.48;;;14.50;99.90;;;;;;5076757;28;20145;-61
2022/03/16 11:47:10;;;;;;;14.43;10.55;;;14.40;99.90;;;;;;5077068;28;20043;-62
2022/03/16 11:49:42;;;;;;;13.23;9.80;;;14.40;99.90;;;;;;5076461;28;20028;-61
2022/03/16 11:52:09;;;;;;;18.45;11.30;;;14.60;99.90;;;;;;5061284;28;20043;-63
2022/03/16 11:54:45;;;;;;;13.68;10.40;;;14.80;99.90;;;;;;5076577;28;20321;-62
2022/03/16 11:57:13;;;;;;;23.05;10.70;;;14.40;99.90;;;;;;5060046;28;20434;-63
2022/03/16 11:59:45;;;;;;;13.10;10.57;;;14.40;99.90;;;;;;5059667;28;20400;-61
2022/03/16 12:02:38;;;;;;;13.32;10.77;;;14.30;99.90;;;;;;5076993;28;20032;-63
2022/03/16 12:05:04;;;;;;;17.08;10.65;;;14.30;99.90;;;;;;5074975;28;20040;-60
2022/03/16 12:07:35;;;;;;;15.15;10.43;;;14.50;99.90;;;;;;5076930;28;20470;-60
2022/03/16 12:10:03;;;;;;;17.77;10.57;;;14.70;99.90;;;;;;5076959;28;20032;-61
2022/03/16 12:15:27;;;;;;;14.30;11.00;;;14.70;99.90;;;;;;5077040;28;20094;-61
2022/03/16 12:17:56;;;;;;;14.63;10.63;;;14.50;99.90;;;;;;5076788;28;20071;-61
2022/03/16 12:20:25;;;;;;;15.18;10.50;;;14.40;99.90;;;;;;5076318;28;20036;-61
2022/03/16 12:23:00;;;;;;;14.38;10.68;;;14.30;99.90;;;;;;5076609;28;20040;-62
2022/03/16 12:25:30;;;;;;;13.77;11.43;;;14.30;99.90;;;;;;5076608;28;20274;-62
2022/03/16 12:30:50;;;;;;;16.38;11.20;;;14.00;99.90;;;;;;5076938;28;20028;-63
2022/03/16 12:33:24;;;;;;;16.95;11.63;;;14.50;99.90;;;;;;5076192;28;20028;-61
2022/03/16 12:35:58;;;;;;;14.43;11.50;;;14.70;99.90;;;;;;5076939;28;20039;-61
2022/03/16 12:38:26;;;;;;;16.58;11.23;;;14.70;99.90;;;;;;5076432;28;20067;-61
2022/03/16 12:43:38;;;;;;;15.77;10.98;;;14.50;99.90;;;;;;5075869;28;20382;-62
2022/03/16 12:46:32;;;;;;;15.40;10.98;;;14.40;99.90;;;;;;5076266;28;20028;-61
2022/03/16 12:49:06;;;;;;;14.68;11.05;;;14.30;99.90;;;;;;5076602;28;20115;-63
2022/03/16 12:51:45;;;;;;;16.02;11.70;;;14.40;99.90;;;;;;5076604;28;20025;-61
2022/03/16 12:54:26;;;;;;;15.45;11.00;;;14.40;99.90;;;;;;5076507;28;20028;-61